createdAt,value
2022-08-16T00:00:04.305Z,53.91
2022-08-16T00:02:33.528Z,53.14
2022-08-16T00:05:02.421Z,52.73
2022-08-16T00:07:30.428Z,52.68
2022-08-16T00:09:58.912Z,52.07
2022-08-16T00:12:28.528Z,52.12
2022-08-16T00:14:57.526Z,51.56
2022-08-16T00:17:28.125Z,51.47
2022-08-16T00:19:56.023Z,52.15
2022-08-16T00:22:27.979Z,52.38
2022-08-16T00:24:55.696Z,52.77
2022-08-16T00:27:23.208Z,52.12
2022-08-16T00:30:08.456Z,52.06
2022-08-16T00:32:40.247Z,52.25
2022-08-16T00:35:15.273Z,51.46
2022-08-16T00:37:58.397Z,51.04
2022-08-16T00:40:34.234Z,50.64
2022-08-16T00:43:16.866Z,50.86
2022-08-16T00:46:01.361Z,52.90
2022-08-16T00:48:50.683Z,55.85
2022-08-16T00:51:20.263Z,57.56
2022-08-16T00:53:50.096Z,58.73
2022-08-16T00:56:57.741Z,59.84
2022-08-16T00:59:18.965Z,60.51
2022-08-16T01:01:46.158Z,60.59
2022-08-16T01:04:29.480Z,60.09
2022-08-16T01:07:03.249Z,60.74
2022-08-16T01:09:33.163Z,59.74
2022-08-16T01:12:03.329Z,59.43
2022-08-16T01:14:43.413Z,59.03
2022-08-16T01:17:13.883Z,58.71
2022-08-16T01:19:44.583Z,58.74
2022-08-16T01:22:48.346Z,58.86
2022-08-16T01:25:36.251Z,60.05
2022-08-16T01:28:08.192Z,63.99
2022-08-16T01:30:50.021Z,67.67
2022-08-16T01:33:20.176Z,69.77
2022-08-16T01:36:00.480Z,72.40
2022-08-16T01:38:33.033Z,73.41
2022-08-16T01:41:05.148Z,75.33
2022-08-16T01:43:36.662Z,73.29
2022-08-16T01:46:29.896Z,76.31
2022-08-16T01:49:04.315Z,77.78
2022-08-16T01:51:31.946Z,77.65
2022-08-16T01:53:59.615Z,78.17
2022-08-16T01:56:27.221Z,79.17
2022-08-16T01:58:57.174Z,80.45
2022-08-16T02:01:26.227Z,81.66
2022-08-16T02:03:58.638Z,82.18
2022-08-16T02:06:38.105Z,82.62
2022-08-16T02:09:11.851Z,80.69
2022-08-16T02:11:47.583Z,80.92
2022-08-16T02:14:18.527Z,78.55
2022-08-16T02:16:49.429Z,79.13
2022-08-16T02:19:18.519Z,76.09
2022-08-16T02:22:08.768Z,76.89
2022-08-16T02:24:42.274Z,75.52
2022-08-16T02:27:13.767Z,73.91
2022-08-16T02:29:43.095Z,73.83
2022-08-16T02:32:49.768Z,73.79
2022-08-16T02:35:00.659Z,77.78
2022-08-16T02:37:39.782Z,72.29
2022-08-16T02:40:17.244Z,71.66
2022-08-16T02:42:45.551Z,71.89
2022-08-16T02:45:27.697Z,71.19
2022-08-16T02:48:01.344Z,71.45
2022-08-16T02:50:54.004Z,71.62
2022-08-16T02:53:30.979Z,70.75
2022-08-16T02:55:59.237Z,71.05
2022-08-16T02:58:28.365Z,70.75
2022-08-16T03:00:57.465Z,70.80
2022-08-16T03:03:26.807Z,70.80
2022-08-16T03:06:42.480Z,71.10
2022-08-16T03:09:03.883Z,71.06
2022-08-16T03:11:35.595Z,71.30
2022-08-16T03:14:08.372Z,71.93
2022-08-16T03:16:39.071Z,71.60
2022-08-16T03:19:10.846Z,72.02
2022-08-16T03:21:38.874Z,71.38
2022-08-16T03:24:28.942Z,72.11
2022-08-16T03:26:58.119Z,71.63
2022-08-16T03:29:29.990Z,71.44
2022-08-16T03:32:01.556Z,71.67
2022-08-16T03:34:29.893Z,70.87
2022-08-16T03:36:58.313Z,71.06
2022-08-16T03:39:25.646Z,71.39
2022-08-16T03:41:59.911Z,71.21
2022-08-16T03:44:44.545Z,71.06
2022-08-16T03:47:19.143Z,71.29
2022-08-16T03:49:51.682Z,71.29
2022-08-16T03:52:23.860Z,71.28
2022-08-16T03:54:59.927Z,71.19
2022-08-16T03:57:31.887Z,70.69
2022-08-16T04:00:20.603Z,70.70
2022-08-16T04:03:07.697Z,70.17
2022-08-16T04:05:38.862Z,70.00
2022-08-16T04:08:22.915Z,69.50
2022-08-16T04:10:53.122Z,69.53
2022-08-16T04:13:58.856Z,69.51
2022-08-16T04:16:09.546Z,69.16
2022-08-16T04:19:02.159Z,69.08
2022-08-16T04:21:36.352Z,69.20
2022-08-16T04:24:15.498Z,68.78
2022-08-16T04:26:46.048Z,68.84
2022-08-16T04:29:23.788Z,68.97
2022-08-16T04:31:56.284Z,68.46
2022-08-16T04:34:29.594Z,68.42
2022-08-16T04:37:01.233Z,68.47
2022-08-16T04:39:37.009Z,68.33
2022-08-16T04:42:17.951Z,68.56
2022-08-16T04:44:53.372Z,68.49
2022-08-16T04:47:35.326Z,68.43
2022-08-16T04:50:12.566Z,68.15
2022-08-16T04:52:55.584Z,68.38
2022-08-16T04:55:31.742Z,67.80
2022-08-16T04:58:44.106Z,67.61
2022-08-16T05:00:55.011Z,67.31
2022-08-16T05:03:22.479Z,66.82
2022-08-16T05:05:59.142Z,66.75
2022-08-16T05:08:33.026Z,66.95
2022-08-16T05:11:09.833Z,67.44
2022-08-16T05:13:42.592Z,65.26
2022-08-16T05:16:32.338Z,64.52
2022-08-16T05:19:02.359Z,64.94
2022-08-16T05:21:37.956Z,63.98
2022-08-16T05:24:07.354Z,63.85
2022-08-16T05:26:40.822Z,63.43
2022-08-16T05:29:14.731Z,63.46
2022-08-16T05:31:48.420Z,63.84
2022-08-16T05:36:51.224Z,62.65
2022-08-16T05:39:20.567Z,62.72
2022-08-16T05:41:48.990Z,61.74
2022-08-16T05:44:22.438Z,61.92
2022-08-16T05:46:56.743Z,61.70
2022-08-16T05:49:36.843Z,61.67
2022-08-16T05:52:13.468Z,62.14
2022-08-16T05:54:47.278Z,62.31
2022-08-16T05:57:17.653Z,61.67
2022-08-16T05:59:47.385Z,61.53
2022-08-16T06:02:18.689Z,61.31
2022-08-16T06:04:46.407Z,61.03
2022-08-16T06:07:24.837Z,61.16
2022-08-16T06:09:58.282Z,60.64
2022-08-16T06:12:28.688Z,59.82
2022-08-16T06:14:59.333Z,60.06
2022-08-16T06:17:41.651Z,59.78
2022-08-16T06:20:24.149Z,59.17
2022-08-16T06:22:58.823Z,59.65
2022-08-16T06:25:36.523Z,59.77
2022-08-16T06:28:17.024Z,60.36
2022-08-16T06:30:45.955Z,60.04
2022-08-16T06:33:19.485Z,59.86
2022-08-16T06:35:47.386Z,59.96
2022-08-16T06:38:34.060Z,60.25
2022-08-16T06:41:12.310Z,59.92
2022-08-16T06:43:41.905Z,60.04
2022-08-16T06:46:23.744Z,60.35
2022-08-16T06:49:08.201Z,59.97
2022-08-16T06:51:46.192Z,60.47
2022-08-16T06:54:17.139Z,60.62
2022-08-16T06:56:44.772Z,60.31
2022-08-16T06:59:13.060Z,60.53
2022-08-16T07:01:44.471Z,60.51
2022-08-16T07:04:33.317Z,60.56
2022-08-16T07:07:06.304Z,60.84
2022-08-16T07:09:37.779Z,60.93
2022-08-16T07:12:05.806Z,60.92
2022-08-16T07:14:33.779Z,60.92
2022-08-16T07:17:03.591Z,60.90
2022-08-16T07:20:29.320Z,60.57
2022-08-16T07:22:37.297Z,60.66
2022-08-16T07:25:09.977Z,60.53
2022-08-16T07:27:38.428Z,60.56
2022-08-16T07:30:45.033Z,60.72
2022-08-16T07:32:56.885Z,60.90
2022-08-16T07:35:25.164Z,60.92
2022-08-16T07:37:52.156Z,61.40
2022-08-16T07:40:31.831Z,61.81
2022-08-16T07:43:07.459Z,62.44
2022-08-16T07:45:35.054Z,62.95
2022-08-16T07:48:11.788Z,63.47
2022-08-16T07:50:56.594Z,63.76
2022-08-16T07:53:31.588Z,64.34
2022-08-16T07:56:00.535Z,64.70
2022-08-16T07:58:34.236Z,65.56
2022-08-16T08:01:10.585Z,67.12
2022-08-16T08:03:48.444Z,68.52
2022-08-16T08:06:25.073Z,70.23
2022-08-16T08:08:59.154Z,70.81
2022-08-16T08:11:28.471Z,70.63
2022-08-16T08:14:03.496Z,71.33
2022-08-16T08:16:33.120Z,71.93
2022-08-16T08:19:02.783Z,72.05
2022-08-16T08:22:01.406Z,72.18
2022-08-16T08:24:21.736Z,70.94
2022-08-16T08:26:50.310Z,71.36
2022-08-16T08:29:23.199Z,71.59
2022-08-16T08:32:58.398Z,71.46
2022-08-16T08:34:53.643Z,72.46
2022-08-16T08:37:22.537Z,72.98
2022-08-16T08:39:54.821Z,73.75
2022-08-16T08:42:25.181Z,74.93
2022-08-16T08:44:54.878Z,75.96
2022-08-16T08:47:22.871Z,75.38
2022-08-16T08:49:55.753Z,76.22
2022-08-16T08:52:34.722Z,75.91
2022-08-16T08:55:09.200Z,76.38
2022-08-16T08:57:46.128Z,77.77
2022-08-16T09:00:15.657Z,77.92
2022-08-16T09:02:52.206Z,78.59
2022-08-16T09:05:22.466Z,79.02
2022-08-16T09:08:01.176Z,78.94
2022-08-16T09:10:30.885Z,79.22
2022-08-16T09:12:59.345Z,79.89
2022-08-16T09:15:32.784Z,79.97
2022-08-16T09:18:25.069Z,79.56
2022-08-16T09:20:58.390Z,80.06
2022-08-16T09:23:26.018Z,79.63
2022-08-16T09:25:54.698Z,79.44
2022-08-16T09:29:13.527Z,78.86
2022-08-16T09:31:11.012Z,79.37
2022-08-16T09:33:39.347Z,79.06
2022-08-16T09:36:12.101Z,78.39
2022-08-16T09:38:59.577Z,78.59
2022-08-16T09:41:27.147Z,78.56
2022-08-16T09:44:00.211Z,78.58
2022-08-16T09:46:45.927Z,78.30
2022-08-16T09:49:16.662Z,77.37
2022-08-16T09:51:49.632Z,76.64
2022-08-16T09:54:20.961Z,76.45
2022-08-16T09:56:52.994Z,75.81
2022-08-16T09:59:25.506Z,75.66
2022-08-16T10:01:58.082Z,75.37
2022-08-16T10:04:31.539Z,74.66
2022-08-16T10:07:02.463Z,75.27
2022-08-16T10:09:45.062Z,74.11
2022-08-16T10:12:42.943Z,73.95
2022-08-16T10:15:15.482Z,74.20
2022-08-16T10:18:00.671Z,74.48
2022-08-16T10:20:33.938Z,73.77
2022-08-16T10:23:06.745Z,73.75
2022-08-16T10:27:00.760Z,72.59
2022-08-16T10:28:29.965Z,72.82
2022-08-16T10:31:04.318Z,72.19
2022-08-16T10:33:33.480Z,73.13
2022-08-16T10:36:03.867Z,73.75
2022-08-16T10:38:36.861Z,73.72
2022-08-16T10:41:08.527Z,74.38
2022-08-16T10:43:39.141Z,75.11
2022-08-16T10:46:39.277Z,75.26
2022-08-16T10:48:56.863Z,75.03
2022-08-16T10:51:33.437Z,75.23
2022-08-16T10:54:00.983Z,74.53
2022-08-16T10:56:55.393Z,75.06
2022-08-16T10:59:32.666Z,75.24
2022-08-16T11:07:43.728Z,73.60
2022-08-16T11:10:20.745Z,73.12
2022-08-16T11:12:48.529Z,73.27
2022-08-16T11:15:20.316Z,72.76
2022-08-16T11:18:48.460Z,73.86
2022-08-16T11:20:41.296Z,73.46
2022-08-16T11:23:11.064Z,73.04
2022-08-16T11:31:13.542Z,72.18
2022-08-16T11:33:55.819Z,72.55
2022-08-16T11:36:27.953Z,72.60
2022-08-16T11:39:00.362Z,72.58
2022-08-16T11:41:30.854Z,72.56
2022-08-16T11:43:59.072Z,72.65
2022-08-16T11:46:45.321Z,72.27
2022-08-16T11:49:14.201Z,72.25
2022-08-16T11:51:44.401Z,72.29
2022-08-16T11:54:21.547Z,71.51
2022-08-16T11:56:57.666Z,71.16
2022-08-16T11:59:28.901Z,71.46
2022-08-16T12:02:31.368Z,70.96
2022-08-16T12:04:51.986Z,71.43
2022-08-16T12:07:20.824Z,71.06
2022-08-16T12:09:53.295Z,71.07
2022-08-16T12:12:21.072Z,70.68
2022-08-16T12:14:59.845Z,70.93
2022-08-16T12:17:32.438Z,70.76
2022-08-16T12:20:01.510Z,71.17
2022-08-16T12:22:29.136Z,71.09
2022-08-16T12:24:56.473Z,71.56
2022-08-16T12:27:25.737Z,71.64
2022-08-16T12:29:54.007Z,71.55
2022-08-16T12:32:37.534Z,71.84
2022-08-16T12:35:12.157Z,71.16
2022-08-16T12:37:41.520Z,71.44
2022-08-16T12:40:23.702Z,71.75
2022-08-16T12:42:58.446Z,72.04
2022-08-16T12:45:30.902Z,71.24
2022-08-16T12:48:33.464Z,71.85
2022-08-16T12:51:10.970Z,71.51
2022-08-16T12:53:47.680Z,72.44
2022-08-16T12:56:14.901Z,71.82
2022-08-16T12:58:48.788Z,71.94
2022-08-16T13:01:24.651Z,71.83
2022-08-16T13:04:12.134Z,71.88
2022-08-16T13:06:44.254Z,70.89
2022-08-16T13:09:20.992Z,71.10
2022-08-16T13:12:00.103Z,70.99
2022-08-16T13:14:39.582Z,71.27
2022-08-16T13:17:18.819Z,69.68
2022-08-16T13:20:07.728Z,69.47
2022-08-16T13:22:42.990Z,69.89
2022-08-16T13:25:19.436Z,69.54
2022-08-16T13:28:02.033Z,68.72
2022-08-16T13:30:41.168Z,69.13
2022-08-16T13:33:16.480Z,68.96
2022-08-16T13:35:56.428Z,68.37
2022-08-16T13:38:30.199Z,69.09
2022-08-16T13:41:02.646Z,69.09
2022-08-16T13:43:32.688Z,69.11
2022-08-16T13:46:04.369Z,69.43
2022-08-16T13:48:42.855Z,69.93
2022-08-16T13:51:16.804Z,70.02
2022-08-16T13:53:54.321Z,70.30
2022-08-16T13:56:25.737Z,70.60
2022-08-16T13:58:55.012Z,70.78
2022-08-16T14:01:22.544Z,70.78
2022-08-16T14:03:50.463Z,70.96
2022-08-16T14:06:21.949Z,70.92
2022-08-16T14:08:50.360Z,70.20
2022-08-16T14:11:33.485Z,69.54
2022-08-16T14:14:01.791Z,69.19
2022-08-16T14:16:33.632Z,69.49
2022-08-16T14:19:02.204Z,70.14
2022-08-16T14:21:35.384Z,69.46
2022-08-16T14:24:12.911Z,69.22
2022-08-16T14:26:50.032Z,68.57
2022-08-16T14:31:54.133Z,68.52
2022-08-16T14:34:21.964Z,69.42
2022-08-16T14:36:52.959Z,68.92
2022-08-16T14:39:22.195Z,69.03
2022-08-16T14:41:49.368Z,69.54
2022-08-16T14:44:20.177Z,69.81
2022-08-16T14:46:46.966Z,69.86
2022-08-16T14:49:14.474Z,70.43
2022-08-16T14:51:46.003Z,71.00
2022-08-16T14:54:12.830Z,71.13
2022-08-16T14:56:46.901Z,71.43
2022-08-16T14:59:22.542Z,71.40
2022-08-16T15:01:58.780Z,71.13
2022-08-16T15:04:39.623Z,71.62
2022-08-16T15:07:15.800Z,72.19
2022-08-16T15:10:01.225Z,72.21
2022-08-16T15:12:34.160Z,72.17
2022-08-16T15:15:12.095Z,72.00
2022-08-16T15:17:43.209Z,72.41
2022-08-16T15:20:22.592Z,72.72
2022-08-16T15:22:51.014Z,72.87
2022-08-16T15:25:29.190Z,72.34
2022-08-16T15:27:58.518Z,72.17
2022-08-16T15:30:48.101Z,71.98
2022-08-16T15:33:20.636Z,72.28
2022-08-16T15:35:50.655Z,72.36
2022-08-16T15:38:55.000Z,72.85
2022-08-16T15:41:05.389Z,73.32
2022-08-16T15:43:39.098Z,74.76
2022-08-16T15:46:35.663Z,74.91
2022-08-16T15:49:12.063Z,75.94
2022-08-16T15:51:39.951Z,76.38
2022-08-16T15:54:21.301Z,77.06
2022-08-16T15:56:55.249Z,77.86
2022-08-16T15:59:27.397Z,78.24
2022-08-16T16:01:56.514Z,79.00
2022-08-16T16:04:28.564Z,78.90
2022-08-16T16:06:56.667Z,79.48
2022-08-16T16:09:36.716Z,80.02
2022-08-16T16:12:34.061Z,79.54
2022-08-16T16:14:54.721Z,79.48
2022-08-16T16:17:21.502Z,80.31
2022-08-16T16:19:49.825Z,80.09
2022-08-16T16:22:21.781Z,80.05
2022-08-16T16:24:52.049Z,80.24
2022-08-16T16:27:18.958Z,80.43
2022-08-16T16:29:57.778Z,81.20
2022-08-16T16:32:34.168Z,81.55
2022-08-16T16:35:06.295Z,81.79
2022-08-16T16:37:33.440Z,81.97
2022-08-16T16:40:01.088Z,81.87
2022-08-16T16:42:35.347Z,81.83
2022-08-16T16:45:10.518Z,82.28
2022-08-16T16:47:40.830Z,82.46
2022-08-16T16:50:10.220Z,82.75
2022-08-16T16:52:44.229Z,83.32
2022-08-16T16:55:15.793Z,83.49
2022-08-16T16:58:03.283Z,83.42
2022-08-16T17:00:38.278Z,83.77
2022-08-16T17:03:17.011Z,83.92
2022-08-16T17:05:56.860Z,83.07
2022-08-16T17:08:27.334Z,83.62
2022-08-16T17:10:55.983Z,84.08
2022-08-16T17:13:25.221Z,83.19
2022-08-16T17:15:53.921Z,82.75
2022-08-16T17:19:17.450Z,82.58
2022-08-16T17:21:11.354Z,82.51
2022-08-16T17:23:59.496Z,82.48
2022-08-16T17:26:31.001Z,82.75
2022-08-16T17:29:02.268Z,82.71
2022-08-16T17:31:41.141Z,82.99
2022-08-16T17:34:30.162Z,83.22
2022-08-16T17:37:05.325Z,83.25
2022-08-16T17:39:45.276Z,83.08
2022-08-16T17:42:25.338Z,83.12
2022-08-16T17:44:52.769Z,82.82
2022-08-16T17:47:21.724Z,82.53
2022-08-16T17:49:49.096Z,82.68
2022-08-16T17:52:17.016Z,82.85
2022-08-16T17:54:44.516Z,83.20
2022-08-16T17:57:12.440Z,83.51
2022-08-16T17:59:41.065Z,83.18
2022-08-16T18:02:42.342Z,83.74
2022-08-16T18:04:55.680Z,84.40
2022-08-16T18:07:23.004Z,84.47
2022-08-16T18:09:52.321Z,84.88
2022-08-16T18:12:51.008Z,85.44
2022-08-16T18:15:11.247Z,85.52
2022-08-16T18:17:38.613Z,86.24
2022-08-16T18:20:07.134Z,86.31
2022-08-16T18:22:34.280Z,86.41
2022-08-16T18:25:01.465Z,86.85
2022-08-16T18:27:29.812Z,86.99
2022-08-16T18:29:56.533Z,87.58
2022-08-16T18:32:24.824Z,87.32
2022-08-16T18:34:54.489Z,87.71
2022-08-16T18:37:23.340Z,88.64
2022-08-16T18:39:50.509Z,88.27
2022-08-16T18:42:17.350Z,88.53
2022-08-16T18:44:44.691Z,88.84
2022-08-16T18:47:11.765Z,88.64
2022-08-16T18:49:38.904Z,88.52
2022-08-16T18:52:05.858Z,88.87
2022-08-16T18:54:34.235Z,88.72
2022-08-16T18:57:20.913Z,88.99
2022-08-16T18:59:48.001Z,89.20
2022-08-16T19:02:56.860Z,89.20
2022-08-16T19:05:25.899Z,89.13
2022-08-16T19:07:52.739Z,89.11
2022-08-16T19:10:20.404Z,89.10
2022-08-16T19:12:47.274Z,89.43
2022-08-16T19:15:23.428Z,89.79
2022-08-16T19:17:50.471Z,89.66
2022-08-16T19:20:21.364Z,89.30
2022-08-16T19:23:05.012Z,89.36
2022-08-16T19:25:46.699Z,89.27
2022-08-16T19:28:49.099Z,89.71
2022-08-16T19:31:05.951Z,88.92
2022-08-16T19:33:32.766Z,89.04
2022-08-16T19:35:59.743Z,89.30
2022-08-16T19:38:26.766Z,89.40
2022-08-16T19:40:53.513Z,89.46
2022-08-16T19:43:21.959Z,89.45
2022-08-16T19:45:49.579Z,88.87
2022-08-16T19:48:16.359Z,89.15
2022-08-16T19:50:43.088Z,89.65
2022-08-16T19:53:18.870Z,89.13
2022-08-16T19:55:47.546Z,89.53
2022-08-16T19:58:16.869Z,89.56
2022-08-16T20:00:45.652Z,89.35
2022-08-16T20:03:23.388Z,89.74
2022-08-16T20:05:51.563Z,89.15
2022-08-16T20:08:18.982Z,89.08
2022-08-16T20:10:48.504Z,89.28
2022-08-16T20:13:21.444Z,89.78
2022-08-16T20:15:49.576Z,89.82
2022-08-16T20:18:24.560Z,89.99
2022-08-16T20:20:52.919Z,90.47
2022-08-16T20:23:24.381Z,90.23
2022-08-16T20:25:55.830Z,90.26
2022-08-16T20:28:45.026Z,90.65
2022-08-16T20:31:11.952Z,89.73
2022-08-16T20:33:38.878Z,89.95
2022-08-16T20:36:05.740Z,89.45
2022-08-16T20:38:32.772Z,88.94
2022-08-16T20:40:59.523Z,88.94
2022-08-16T20:43:26.215Z,89.19
2022-08-16T20:45:53.296Z,89.31
2022-08-16T20:48:20.004Z,89.25
2022-08-16T20:50:46.783Z,88.39
2022-08-16T20:53:13.733Z,88.44
2022-08-16T20:55:41.655Z,88.78
2022-08-16T20:58:08.403Z,88.51
2022-08-16T21:00:35.510Z,88.92
2022-08-16T21:03:12.737Z,88.93
2022-08-16T21:05:40.060Z,89.03
2022-08-16T21:08:27.970Z,89.28
2022-08-16T21:10:54.370Z,89.42
2022-08-16T21:13:21.132Z,88.87
2022-08-16T21:15:48.041Z,88.72
2022-08-16T21:18:15.198Z,88.82
2022-08-16T21:20:41.903Z,88.71
2022-08-16T21:23:10.974Z,88.41
2022-08-16T21:25:39.622Z,87.81
2022-08-16T21:28:40.966Z,87.71
2022-08-16T21:31:07.093Z,87.91
2022-08-16T21:33:35.998Z,87.98
2022-08-16T21:36:03.559Z,87.68
2022-08-16T21:38:31.153Z,87.38
2022-08-16T21:41:03.379Z,87.19
2022-08-16T21:43:32.909Z,87.24
2022-08-16T21:46:01.723Z,87.25
2022-08-16T21:48:34.041Z,86.89
2022-08-16T21:51:14.621Z,87.02
2022-08-16T21:53:42.975Z,86.31
2022-08-16T21:56:16.883Z,85.99
2022-08-16T21:58:46.009Z,86.16
2022-08-16T22:01:13.289Z,86.71
2022-08-16T22:03:40.604Z,86.52
2022-08-16T22:06:13.778Z,86.04
2022-08-16T22:08:48.801Z,86.16
2022-08-16T22:11:19.878Z,86.30
2022-08-16T22:13:58.322Z,85.57
2022-08-16T22:16:36.983Z,85.67
2022-08-16T22:19:05.228Z,85.79
2022-08-16T22:21:33.672Z,85.52
2022-08-16T22:24:00.782Z,85.47
2022-08-16T22:26:31.811Z,85.05
2022-08-16T22:29:02.495Z,85.38
2022-08-16T22:31:29.672Z,85.21
2022-08-16T22:33:57.277Z,85.24
2022-08-16T22:36:28.588Z,85.53
2022-08-16T22:38:58.814Z,85.59
2022-08-16T22:41:28.730Z,85.33
2022-08-16T22:43:56.034Z,85.43
2022-08-16T22:46:22.776Z,84.74
2022-08-16T22:48:50.865Z,85.06
2022-08-16T22:51:19.747Z,84.94
2022-08-16T22:53:46.928Z,84.68
2022-08-16T22:56:15.477Z,84.59
2022-08-16T22:58:42.849Z,84.09
2022-08-16T23:01:10.673Z,84.37
2022-08-16T23:03:38.518Z,84.45
2022-08-16T23:06:06.510Z,84.02
2022-08-16T23:08:39.458Z,84.21
2022-08-16T23:11:21.034Z,83.96
2022-08-16T23:13:54.646Z,84.08
2022-08-16T23:16:33.732Z,84.12
2022-08-16T23:19:10.367Z,83.97
2022-08-16T23:21:40.688Z,83.97
2022-08-16T23:24:08.939Z,83.99
2022-08-16T23:26:45.969Z,84.35
2022-08-16T23:29:24.217Z,84.32
2022-08-16T23:31:59.296Z,84.42
2022-08-16T23:34:28.114Z,84.80
2022-08-16T23:36:55.307Z,84.74
2022-08-16T23:39:22.296Z,84.68
2022-08-16T23:41:49.623Z,84.76
2022-08-16T23:44:56.665Z,84.94
2022-08-16T23:47:05.978Z,84.84
2022-08-16T23:49:56.959Z,84.91
2022-08-16T23:52:45.330Z,85.30
2022-08-16T23:55:07.245Z,85.16
2022-08-16T23:57:34.280Z,84.86
